createdAt,value
2022-12-13T00:08:24.494Z,40.20
2022-12-13T00:18:27.883Z,34.70
2022-12-13T00:28:30.497Z,39.10
2022-12-13T00:38:33.221Z,37.47
2022-12-13T00:48:35.772Z,33.20
2022-12-13T00:58:38.454Z,33.53
2022-12-13T01:08:41.784Z,32.47
2022-12-13T01:18:44.806Z,29.40
2022-12-13T01:28:47.649Z,28.10
2022-12-13T01:38:50.016Z,33.63
2022-12-13T01:49:19.569Z,29.97
2022-12-13T01:59:23.586Z,34.30
2022-12-13T02:09:27.035Z,28.43
2022-12-13T02:19:47.958Z,28.03
2022-12-13T02:30:14.444Z,30.07
2022-12-13T02:40:47.135Z,28.17
2022-12-13T02:50:52.402Z,27.07
2022-12-13T03:01:28.044Z,26.37
2022-12-13T03:12:05.570Z,24.20
2022-12-13T03:22:08.054Z,25.03
2022-12-13T03:32:10.502Z,25.43
2022-12-13T03:42:12.894Z,30.70
2022-12-13T03:52:15.256Z,25.90
2022-12-13T04:02:31.357Z,30.30
2022-12-13T04:12:53.170Z,31.67
2022-12-13T04:22:55.425Z,36.03
2022-12-13T04:32:57.515Z,33.63
2022-12-13T04:42:59.970Z,31.93
2022-12-13T04:53:02.472Z,34.67
2022-12-13T05:03:04.759Z,37.20
2022-12-13T05:13:07.972Z,38.87
2022-12-13T05:23:10.534Z,34.20
2022-12-13T05:33:13.109Z,37.97
2022-12-13T05:43:22.251Z,39.70
2022-12-13T05:53:37.280Z,39.27
2022-12-13T06:03:41.047Z,40.78
2022-12-13T06:13:44.509Z,38.37
2022-12-13T06:23:47.413Z,40.43
2022-12-13T06:33:50.745Z,46.90
2022-12-13T06:43:53.410Z,48.23
2022-12-13T06:53:56.825Z,39.83
2022-12-13T07:04:03.601Z,44.87
2022-12-13T07:14:06.735Z,46.77
2022-12-13T07:24:10.994Z,46.07
2022-12-13T07:34:15.693Z,48.80
2022-12-13T07:44:18.666Z,46.30
2022-12-13T07:54:21.404Z,45.87
2022-12-13T08:04:24.315Z,51.50
2022-12-13T08:14:27.155Z,43.83
2022-12-13T08:24:31.538Z,50.37
2022-12-13T08:34:34.794Z,47.08
2022-12-13T08:44:37.934Z,46.83
2022-12-13T08:54:44.846Z,39.87
2022-12-13T09:04:47.441Z,35.03
2022-12-13T09:14:50.156Z,25.27
2022-12-13T09:24:53.065Z,29.43
2022-12-13T09:34:56.131Z,26.70
2022-12-13T09:45:03.774Z,26.20
2022-12-13T09:55:53.062Z,25.00
2022-12-13T10:06:00.772Z,26.67
2022-12-13T10:16:27.446Z,21.93
2022-12-13T10:36:44.067Z,19.90
2022-12-13T10:46:51.565Z,23.17
2022-12-13T10:57:00.331Z,22.20
2022-12-13T11:07:29.063Z,17.37
2022-12-13T11:17:35.421Z,22.43
2022-12-13T11:27:44.566Z,21.27
2022-12-13T11:38:03.754Z,19.67
2022-12-13T11:48:26.445Z,19.77
2022-12-13T11:59:07.978Z,19.93
2022-12-13T12:09:19.160Z,16.77
2022-12-13T12:19:38.185Z,16.03
2022-12-13T12:30:02.418Z,10.93
2022-12-13T12:41:14.188Z,7.00
2022-12-13T12:51:15.671Z,6.67
2022-12-13T13:01:52.276Z,7.65
2022-12-13T13:11:57.223Z,9.53
2022-12-13T13:22:02.588Z,6.27
2022-12-13T13:32:11.709Z,5.25
2022-12-13T13:42:18.349Z,5.77
2022-12-13T13:52:25.421Z,7.50
2022-12-13T14:03:12.669Z,7.37
2022-12-13T14:13:45.218Z,7.37
2022-12-13T14:24:01.639Z,6.83
2022-12-13T14:34:08.144Z,7.63
2022-12-13T14:44:26.509Z,6.07
2022-12-13T14:55:07.718Z,8.83
2022-12-13T15:05:28.785Z,9.60
2022-12-13T15:15:35.925Z,6.83
2022-12-13T15:25:40.173Z,6.83
2022-12-13T15:36:26.051Z,9.23
2022-12-13T15:46:32.711Z,8.60
2022-12-13T15:57:18.333Z,9.87
2022-12-13T16:07:29.420Z,9.93
2022-12-13T16:17:33.838Z,8.90
2022-12-13T16:27:38.259Z,10.50
2022-12-13T16:37:41.732Z,11.63
2022-12-13T16:47:51.612Z,11.03
2022-12-13T16:58:01.346Z,12.23
2022-12-13T17:08:04.632Z,12.90
2022-12-13T17:18:07.460Z,10.00
2022-12-13T17:28:10.235Z,11.07
2022-12-13T17:38:13.013Z,16.30
2022-12-13T17:48:15.507Z,18.43
2022-12-13T17:58:20.360Z,16.67
2022-12-13T18:08:24.414Z,15.60
2022-12-13T18:18:27.318Z,17.50
2022-12-13T18:28:30.921Z,15.87
2022-12-13T18:38:37.034Z,17.53
2022-12-13T18:48:41.875Z,16.70
2022-12-13T18:58:44.879Z,16.27
2022-12-13T19:08:49.711Z,20.70
2022-12-13T19:18:53.016Z,22.30
2022-12-13T19:28:58.101Z,22.23
2022-12-13T19:39:01.652Z,28.03
2022-12-13T19:49:05.308Z,20.97
2022-12-13T19:59:09.038Z,20.97
2022-12-13T20:09:12.284Z,21.60
2022-12-13T20:19:15.308Z,18.17
2022-12-13T20:29:18.954Z,21.30
2022-12-13T20:39:22.583Z,21.10
2022-12-13T20:49:25.510Z,20.30
2022-12-13T20:59:28.787Z,20.83
2022-12-13T21:09:31.743Z,21.27
2022-12-13T21:19:39.331Z,20.07
2022-12-13T21:29:42.990Z,21.90
2022-12-13T21:39:46.489Z,20.13
2022-12-13T21:49:49.715Z,23.53
2022-12-13T21:59:53.238Z,28.83
2022-12-13T22:09:57.037Z,20.27
2022-12-13T22:20:00.724Z,19.07
2022-12-13T22:30:04.566Z,20.03
2022-12-13T22:40:07.751Z,22.40
2022-12-13T22:50:10.268Z,20.83
2022-12-13T23:00:13.460Z,21.73
2022-12-13T23:10:34.486Z,23.00
2022-12-13T23:20:37.049Z,21.27
2022-12-13T23:30:39.781Z,21.17
2022-12-13T23:40:42.342Z,22.87
2022-12-13T23:50:44.899Z,20.83
